Newtonhill, United Kingdom
Current Conditions -  °F | °C
As of 12:20 AM on Tuesday 23 Dec 2014 (Local Time) from EGPD Reporting Station
Clear Clear  
Wind Chill: 37°   Ceiling: Unl
Heat Index: 41°   Visibility: 6mi
Dew Point: 34°   Wind: 6mph
Humidity: 76%   Direction: 230°SW
Pressure: 29.5"   Gusts: NA
Location:  57.03°N, 2.15°W
Report Text: EGPD 230020Z AUTO 23005KT 9999 NCD 05/01 Q0999
Loading
Personal Weather Stations






























Interactive Weather Map New forecast layout! Learn more

10-Day Weather Forecast

Advertisements
Track Severe Weather on mobile